Terminal Aerodrome Forecast
Issued by NWS Glasgow, MT

Home | Current Version | Previous Version | Text Only | Print | Product List | Glossary On
Versions: 1 2 3 4 5 6 7 8 9 10 11 12 13 14 15 16 17
000
FTUS45 KGGW 270003 AAA
TAFGGW
TAF AMD
KGGW 270003Z 2700/2724 30020G25KT P6SM -SHRA BKN080
     FM270200 29006KT P6SM SCT100
     FM271800 30012KT P6SM SCT090
     FM272000 31015G25KT P6SM BKN090=

USA.gov is the U.S. government's official web portal to all federal, state and local government web resources and services.